LFRQ/UIP METAR and TAF weather

Enter ICAO airport designator
Station Type Date Time Source
LFRQ METAR 2021/05/07 01:00 UTC NOAA

LFRQ 070100Z AUTO 31004KT 9999 FEW046 05/04 Q1015


Station Type Date Time Source
LFRQ Decoded METAR 2021/05/07 01:00 UTC NOAA

Quimper, France (LFRQ) 47-58N 004-10W 94M
May 06, 2021 - 09:00 PM EDT / 2021.05.07 0100 UTC
Wind: from the NW (310 degrees) at 5 MPH (4 KT):0
Visibility: greater than 7 mile(s):0
Sky conditions: mostly clear
Temperature: 41 F (5 C)
Dew Point: 39 F (4 C)
Relative Humidity: 93%
Pressure (altimeter): 29.97 in. Hg (1015 hPa)
ob: LFRQ 070100Z AUTO 31004KT 9999 FEW046 05/04 Q1015
cycle: 1

Station Type Date Time Source
LFRQ TAF 2021/05/06 21:14 UTC NOAA

TAF LFRQ 062100Z 0621/0718 CNL

Example: see airport list